Terminal Aerodrome Forecast
Issued by NWS Birmingham, AL

Home | Current Version | Previous Version | Text Only | Print | Product List | Glossary On
Versions: 1 2 3 4 5 6 7 8 9 10 11 12 13 14 15 16 17 18 19 20 21 22 23 24 25 26 27 28 29 30
000
FTUS44 KBMX 270521 CCA
TAFBHM
TAF COR
KBHM 270521Z 2706/2806 17006KT 5SM BR BKN008
      TEMPO 2710/2713 3SM BR BKN004
     FM271400 14005KT P6SM BKN020 BKN110
     FM271900 17007KT P6SM VCTS BKN040CB
     FM280100 VRB03KT P6SM BKN120=

USA.gov is the U.S. government's official web portal to all federal, state and local government web resources and services.